Aérodrome :
LOGIN :

S'inscrire | Disclaimer

   EN    FR    IT 

 










Légende :    VFR   VFR Marginal   IFR   IFR Intensif   IFR Très Intensif
Visi : 
Plafond : 
>= 8 km
>= 3000ft
5 à 8 km
1000 à 3000 ft
1500m à 5 km
500 à 1000 ft
800 à 1500m
200 à 500 ft
< 800m
< 200 ft
Symboles :   Orages  Brouillard  Fortes neiges  Fortes précipitations  Vent > 20 kt
SIGMETs :   Divers  Orages  Givrage  Turbulence  Onde Orograph.  Cendres Volcan.







- Altitude de l'aérodrome : 359 ft
- Code IATA : BVA
- Voir les cartes d'approche


LFOB - Beauvais

DERNIER METAR :
  • 171700Z AUTO 28007KT 9999 SCT033 BKN080 22/17 Q1016 TEMPO 4000 SHRA BKN010 BKN020TCU BECMG 20010KT

METARs EXPIRÉS :
  • 171630Z AUTO 27007KT 9999 BKN036 OVC044 21/17 Q1016 TEMPO 4000 SHRA BKN010 BKN020TCU BECMG 20010KT
  • 171600Z AUTO 27010KT 240V300 9999 SCT045/// BKN058/// BKN072/// ///TCU 21/17 Q1016 TEMPO 4000 SHRA BKN010 BKN020TCU
  • 171530Z AUTO 28011KT 6000 2500 FEW012/// SCT045/// BKN062/// ///CB 21/18 Q1016 TEMPO 4000 SHRA BKN010 BKN020TCU BECMG 20010KT
  • 171500Z AUTO 27012G24KT 240V300 9999 2100 -RA FEW015/// BKN024/// BKN035/// ///CB 21/18 Q1016 TEMPO 4000 SHRA BKN010 BKN020TCU
  • 171430Z AUTO 22009KT 190V250 9999 BKN022/// BKN037/// BKN054/// ///CB 23/18 Q1015 TEMPO 4000 SHRA BKN010 BKN020TCU

TAF TAF LFOB
Valide du 17 à 12h jusqu'au 18 à 12h UTC


171100Z 1712/1812 20010KT 9999 BKN020
TEMPO 1712/1804 4000 SHRA BKN010 BKN020TCU
TEMPO 1804/1810 2000 RA BKN005 BKN015CB
ATIS : +33 3 44 11 49 28
Pas de NOTAMs connus pour ce terrain.



MET'MAP, la Météo Aéronautique d'un coup d'oeil ! - Copyright ORBIFLY Décembre 2007 - Disclaimer

ORBIFLY MET'MAP TEAM :

Programmation & Développement : Alexandra Zaïnal
Conception & Développement : Baudouin d'Aumeries
Co-Programmation & Développement : Marc-Olivier Méhu
Soutien technique & logistique : Manuel Goepfert

Contact : metmap@orbifly.com




SOURCES & CREDITS :

   NOAA